createdAt,value
2023-02-11T00:02:38.423Z,102744.88
2023-02-11T00:05:41.280Z,102736.91
2023-02-11T00:08:44.115Z,102755.56
2023-02-11T00:11:46.912Z,102740.44
2023-02-11T00:14:52.112Z,102741.34
2023-02-11T00:17:54.939Z,102740.44
2023-02-11T00:20:57.779Z,102739.59
2023-02-11T00:24:02.310Z,102731.59
2023-02-11T00:27:05.238Z,102733.44
2023-02-11T00:30:11.456Z,102720.09
2023-02-11T00:33:14.407Z,102707.69
2023-02-11T00:36:19.596Z,102695.28
2023-02-11T00:39:23.155Z,102705.94
2023-02-11T00:42:26.025Z,102690.84
2023-02-11T00:45:30.684Z,102684.56
2023-02-11T00:48:33.964Z,102672.16
2023-02-11T00:51:36.883Z,102658.88
2023-02-11T00:54:40.040Z,102631.34
2023-02-11T00:57:43.202Z,102636.66
2023-02-11T01:00:47.427Z,102628.66
2023-02-11T01:03:50.601Z,102644.66
2023-02-11T01:06:53.470Z,102649.97
2023-02-11T01:09:56.703Z,102663.31
2023-02-11T01:12:59.948Z,102656.19
2023-02-11T01:16:05.167Z,102659.78
2023-02-11T01:19:08.136Z,102656.25
2023-02-11T01:22:11.016Z,102647.41
2023-02-11T01:25:14.120Z,102643.81
2023-02-11T01:28:18.802Z,102641.19
2023-02-11T01:31:23.187Z,102624.31
2023-02-11T01:34:26.050Z,102635.91
2023-02-11T01:37:29.309Z,102663.38
2023-02-11T01:40:33.504Z,102647.44
2023-02-11T01:43:40.347Z,102664.34
2023-02-11T01:46:44.699Z,102656.31
2023-02-11T01:49:52.040Z,102659.88
2023-02-11T01:53:15.512Z,102668.72
2023-02-11T01:56:39.756Z,102658.97
2023-02-11T01:59:49.011Z,102643.88
2023-02-11T02:02:57.687Z,102649.22
2023-02-11T02:06:08.600Z,102649.22
2023-02-11T02:09:18.336Z,102649.25
2023-02-11T02:12:21.433Z,102623.50
2023-02-11T02:15:31.496Z,102617.28
2023-02-11T02:18:44.019Z,102616.41
2023-02-11T02:22:02.552Z,102632.41
2023-02-11T02:25:36.623Z,102638.63
2023-02-11T02:29:07.534Z,102654.59
2023-02-11T02:32:31.292Z,102641.28
2023-02-11T02:35:43.575Z,102635.06
2023-02-11T02:38:51.935Z,102627.97
2023-02-11T02:41:56.709Z,102622.63
2023-02-11T02:44:59.798Z,102620.00
2023-02-11T02:48:04.580Z,102614.63
2023-02-11T02:51:18.732Z,102600.47
2023-02-11T02:54:42.071Z,102593.34
2023-02-11T02:58:04.435Z,102592.47
2023-02-11T03:01:17.813Z,102598.69
2023-02-11T03:04:27.737Z,102580.97
2023-02-11T03:07:39.011Z,102581.00
2023-02-11T03:10:45.433Z,102565.03
2023-02-11T03:13:50.691Z,102569.47
2023-02-11T03:16:58.576Z,102556.16
2023-02-11T03:20:04.308Z,102558.84
2023-02-11T03:23:12.635Z,102556.16
2023-02-11T03:26:19.552Z,102565.03
2023-02-11T03:29:32.230Z,102557.00
2023-02-11T03:32:39.559Z,102566.75
2023-02-11T03:35:52.255Z,102565.81
2023-02-11T03:38:59.722Z,102563.13
2023-02-11T03:42:05.172Z,102554.16
2023-02-11T03:45:11.856Z,102546.13
2023-02-11T03:48:19.115Z,102538.97
2023-02-11T03:51:25.963Z,102538.94
2023-02-11T03:54:32.348Z,102524.63
2023-02-11T03:57:35.322Z,102539.69
2023-02-11T04:00:41.048Z,102538.78
2023-02-11T04:03:43.944Z,102549.41
2023-02-11T04:06:48.265Z,102560.06
2023-02-11T04:09:51.124Z,102559.16
2023-02-11T04:12:53.961Z,102565.34
2023-02-11T04:15:59.218Z,102557.34
2023-02-11T04:19:02.617Z,102542.31
2023-02-11T04:22:07.183Z,102554.75
2023-02-11T04:25:10.935Z,102541.41
2023-02-11T04:28:13.935Z,102538.75
2023-02-11T04:31:16.895Z,102519.25
2023-02-11T04:34:19.858Z,102523.69
2023-02-11T04:37:24.016Z,102522.81
2023-02-11T04:40:26.871Z,102518.41
2023-02-11T04:43:30.067Z,102512.25
2023-02-11T04:46:32.907Z,102504.25
2023-02-11T04:49:35.777Z,102506.06
2023-02-11T04:52:40.083Z,102490.09
2023-02-11T04:55:42.938Z,102483.03
2023-02-11T04:58:45.831Z,102459.09
2023-02-11T05:01:49.531Z,102460.03
2023-02-11T05:04:52.406Z,102454.75
2023-02-11T05:07:56.616Z,102459.25
2023-02-11T05:11:02.121Z,102451.22
2023-02-11T05:14:05.055Z,102449.50
2023-02-11T05:17:08.204Z,102432.63
2023-02-11T05:20:12.155Z,102442.41
2023-02-11T05:23:16.645Z,102446.84
2023-02-11T05:26:20.017Z,102454.00
2023-02-11T05:29:22.910Z,102454.00
2023-02-11T05:32:25.927Z,102447.81
2023-02-11T05:35:28.736Z,102442.47
2023-02-11T05:38:33.358Z,102437.16
2023-02-11T05:41:36.175Z,102436.28
2023-02-11T05:44:39.182Z,102434.50
2023-02-11T05:47:42.036Z,102437.13
2023-02-11T05:50:45.494Z,102444.19
2023-02-11T05:53:49.699Z,102442.44
2023-02-11T05:56:52.676Z,102437.94
2023-02-11T05:59:55.510Z,102437.06
2023-02-11T06:02:58.435Z,102420.19
2023-02-11T06:06:01.260Z,102429.00
2023-02-11T06:09:05.627Z,102416.53
2023-02-11T06:12:08.763Z,102416.53
2023-02-11T06:15:11.878Z,102413.81
2023-02-11T06:18:14.690Z,102416.47
2023-02-11T06:21:17.524Z,102413.78
2023-02-11T06:24:47.739Z,102393.34
2023-02-11T06:27:44.987Z,102395.97
2023-02-11T06:30:47.997Z,102391.56
2023-02-11T06:33:51.006Z,102396.91
2023-02-11T06:36:53.844Z,102393.34
2023-02-11T06:39:58.341Z,102386.25
2023-02-11T06:43:01.340Z,102412.88
2023-02-11T06:46:04.403Z,102403.16
2023-02-11T06:49:07.295Z,102415.63
2023-02-11T06:52:10.203Z,102413.88
2023-02-11T06:55:14.444Z,102408.53
2023-02-11T06:58:17.328Z,102415.69
2023-02-11T07:01:20.279Z,102416.53
2023-02-11T07:04:23.230Z,102413.88
2023-02-11T07:07:26.048Z,102405.00
2023-02-11T07:10:30.678Z,102417.47
2023-02-11T07:13:33.806Z,102406.81
2023-02-11T07:16:37.105Z,102391.78
2023-02-11T07:19:40.010Z,102378.47
2023-02-11T07:22:42.878Z,102378.47
2023-02-11T07:25:46.995Z,102399.78
2023-02-11T07:28:50.146Z,102386.50
2023-02-11T07:31:53.042Z,102408.69
2023-02-11T07:34:55.970Z,102407.81
2023-02-11T07:37:58.835Z,102403.38
2023-02-11T07:41:03.445Z,102395.38
2023-02-11T07:44:07.268Z,102391.84
2023-02-11T07:47:10.330Z,102402.44
2023-02-11T07:50:13.200Z,102406.88
2023-02-11T07:53:16.234Z,102396.22
2023-02-11T07:56:21.659Z,102397.97
2023-02-11T07:59:24.940Z,102416.59
2023-02-11T08:02:27.910Z,102429.06
2023-02-11T08:05:31.122Z,102420.19
2023-02-11T08:08:34.211Z,102421.94
2023-02-11T08:11:38.554Z,102429.91
2023-02-11T08:14:41.383Z,102418.41
2023-02-11T08:17:44.235Z,102402.44
2023-02-11T08:20:47.063Z,102407.75
2023-02-11T08:23:50.473Z,102425.50
2023-02-11T08:26:54.746Z,102425.50
2023-02-11T08:29:59.909Z,102419.25
2023-02-11T08:33:03.108Z,102412.16
2023-02-11T08:36:10.252Z,102404.16
2023-02-11T08:39:19.676Z,102403.25
2023-02-11T08:42:24.690Z,102403.25
2023-02-11T08:45:27.639Z,102422.81
2023-02-11T08:48:30.811Z,102421.06
2023-02-11T08:51:33.798Z,102425.50
2023-02-11T08:54:36.709Z,102423.75
2023-02-11T08:57:41.300Z,102423.75
2023-02-11T09:00:45.329Z,102398.88
2023-02-11T09:03:48.806Z,102401.53
2023-02-11T09:06:51.759Z,102418.41
2023-02-11T09:09:54.716Z,102434.34
2023-02-11T09:12:58.943Z,102445.88
2023-02-11T09:16:03.166Z,102437.84
2023-02-11T09:19:06.648Z,102451.13
2023-02-11T09:22:09.624Z,102462.66
2023-02-11T09:25:12.535Z,102470.66
2023-02-11T09:28:16.835Z,102468.91
2023-02-11T09:31:22.676Z,102452.03
2023-02-11T09:34:25.565Z,102454.72
2023-02-11T09:37:28.367Z,102451.22
2023-02-11T09:40:31.408Z,102455.66
2023-02-11T09:43:40.396Z,102466.31
2023-02-11T09:46:44.187Z,102481.41
2023-02-11T09:49:51.150Z,102475.22
2023-02-11T09:52:59.656Z,102492.94
2023-02-11T09:56:05.884Z,102494.72
2023-02-11T09:59:16.238Z,102484.06
2023-02-11T10:02:28.467Z,102506.22
2023-02-11T10:05:44.183Z,102476.91
2023-02-11T10:08:59.567Z,102476.91
2023-02-11T10:12:27.168Z,102477.81
2023-02-11T10:15:41.035Z,102465.38
2023-02-11T10:18:59.507Z,102467.16
2023-02-11T10:22:11.027Z,102458.31
2023-02-11T10:25:22.168Z,102453.91
2023-02-11T10:28:30.821Z,102457.47
2023-02-11T10:31:41.312Z,102452.16
2023-02-11T10:34:44.237Z,102466.34
2023-02-11T10:37:47.202Z,102461.03
2023-02-11T10:40:50.398Z,102450.38
2023-02-11T10:43:53.895Z,102447.72
2023-02-11T10:47:00.879Z,102436.16
2023-02-11T10:50:19.678Z,102421.97
2023-02-11T10:53:24.375Z,102440.56
2023-02-11T10:56:29.194Z,102444.16
2023-02-11T10:59:38.372Z,102443.25
2023-02-11T11:02:46.205Z,102429.91
2023-02-11T11:05:51.407Z,102417.53
2023-02-11T11:08:54.378Z,102418.41
2023-02-11T11:11:58.058Z,102419.25
2023-02-11T11:15:03.842Z,102421.06
2023-02-11T11:18:21.945Z,102432.59
2023-02-11T11:21:27.524Z,102431.72
2023-02-11T11:24:35.334Z,102416.66
2023-02-11T11:27:38.338Z,102413.06
2023-02-11T11:30:44.708Z,102415.69
2023-02-11T11:33:52.452Z,102421.91
2023-02-11T11:36:57.390Z,102448.50
2023-02-11T11:40:03.914Z,102440.47
2023-02-11T11:43:20.219Z,102457.34
2023-02-11T11:46:29.718Z,102457.34
2023-02-11T11:49:37.135Z,102458.22
2023-02-11T11:52:47.486Z,102448.44
2023-02-11T11:55:59.654Z,102459.06
2023-02-11T11:59:10.389Z,102467.94
2023-02-11T12:02:36.511Z,102478.59
2023-02-11T12:05:46.431Z,102468.84
2023-02-11T12:09:03.115Z,102480.44
2023-02-11T12:12:29.324Z,102474.25
2023-02-11T12:15:39.289Z,102476.06
2023-02-11T12:19:02.927Z,102479.66
2023-02-11T12:22:11.979Z,102473.44
2023-02-11T12:25:27.240Z,102477.00
2023-02-11T12:28:39.528Z,102498.31
2023-02-11T12:31:56.952Z,102493.88
2023-02-11T12:35:26.053Z,102491.22
2023-02-11T12:38:58.779Z,102499.13
2023-02-11T12:42:35.886Z,102497.28
2023-02-11T12:46:03.472Z,102509.69
2023-02-11T12:49:25.317Z,102511.41
2023-02-11T12:52:46.217Z,102515.75
2023-02-11T12:55:55.612Z,102522.81
2023-02-11T12:59:01.729Z,102519.22
2023-02-11T13:02:12.489Z,102519.16
2023-02-11T13:05:28.065Z,102510.22
2023-02-11T13:08:34.820Z,102511.97
2023-02-11T13:11:44.246Z,102503.06
2023-02-11T13:14:51.077Z,102500.41
2023-02-11T13:18:01.346Z,102495.97
2023-02-11T13:21:23.369Z,102501.34
2023-02-11T13:24:33.643Z,102497.81
2023-02-11T13:27:46.612Z,102501.41
2023-02-11T13:30:57.695Z,102499.63
2023-02-11T13:34:00.921Z,102494.34
2023-02-11T13:37:03.815Z,102493.44
2023-02-11T13:40:21.252Z,102499.69
2023-02-11T13:43:28.752Z,102497.06
2023-02-11T13:46:50.800Z,102496.16
2023-02-11T13:49:54.520Z,102490.00
2023-02-11T13:53:02.692Z,102486.44
2023-02-11T13:56:08.870Z,102491.78
2023-02-11T13:59:44.307Z,102499.75
2023-02-11T14:03:43.318Z,102493.56
2023-02-11T14:07:33.094Z,102496.25
2023-02-11T14:10:53.716Z,102489.16
2023-02-11T14:14:13.927Z,102502.53
2023-02-11T14:17:21.269Z,102504.31
2023-02-11T14:20:44.574Z,102512.28
2023-02-11T14:23:48.456Z,102522.94
2023-02-11T14:26:55.416Z,102522.94
2023-02-11T14:30:33.730Z,102536.28
2023-02-11T14:34:06.187Z,102556.69
2023-02-11T14:37:23.631Z,102556.69
2023-02-11T14:40:30.850Z,102551.38
2023-02-11T14:43:39.523Z,102569.09
2023-02-11T14:46:46.798Z,102573.53
2023-02-11T14:49:50.957Z,102570.84
2023-02-11T14:52:56.881Z,102575.31
2023-02-11T14:55:59.759Z,102570.84
2023-02-11T14:59:03.649Z,102581.50
2023-02-11T15:02:21.966Z,102585.06
2023-02-11T15:05:27.231Z,102590.41
2023-02-11T15:08:32.908Z,102593.94
2023-02-11T15:11:40.471Z,102597.50
2023-02-11T15:14:47.941Z,102605.50
2023-02-11T15:17:51.469Z,102602.81
2023-02-11T15:20:54.659Z,102609.91
2023-02-11T15:24:01.640Z,102615.22
2023-02-11T15:27:12.982Z,102619.66
2023-02-11T15:30:26.946Z,102629.38
2023-02-11T15:33:32.022Z,102613.41
2023-02-11T15:36:36.368Z,102622.28
2023-02-11T15:39:42.071Z,102612.50
2023-02-11T15:42:58.346Z,102614.25
2023-02-11T15:46:02.978Z,102624.06
2023-02-11T15:49:08.579Z,102635.59
2023-02-11T15:52:12.439Z,102636.50
2023-02-11T15:55:18.856Z,102645.38
2023-02-11T15:58:24.253Z,102646.25
2023-02-11T16:01:33.842Z,102645.38
2023-02-11T16:04:38.473Z,102646.25
2023-02-11T16:07:44.672Z,102648.88
2023-02-11T16:10:58.655Z,102652.44
2023-02-11T16:14:05.206Z,102651.53
2023-02-11T16:17:12.226Z,102657.75
2023-02-11T16:20:19.958Z,102659.50
2023-02-11T16:23:26.539Z,102653.28
2023-02-11T16:26:34.599Z,102654.16
2023-02-11T16:29:38.233Z,102659.50
2023-02-11T16:32:41.411Z,102660.44
2023-02-11T16:35:47.606Z,102676.41
2023-02-11T16:38:50.550Z,102687.06
2023-02-11T16:41:55.828Z,102695.91
2023-02-11T16:44:59.770Z,102697.72
2023-02-11T16:48:03.106Z,102703.97
2023-02-11T16:51:09.190Z,102711.06
2023-02-11T16:54:15.442Z,102705.72
2023-02-11T16:57:21.811Z,102709.25
2023-02-11T17:00:25.306Z,102702.19
2023-02-11T17:03:30.143Z,102711.06
2023-02-11T17:06:34.478Z,102708.34
2023-02-11T17:09:37.771Z,102704.81
2023-02-11T17:12:41.982Z,102704.81
2023-02-11T17:15:44.890Z,102700.41
2023-02-11T17:18:47.813Z,102703.97
2023-02-11T17:21:52.687Z,102708.41
2023-02-11T17:24:57.387Z,102711.06
2023-02-11T17:28:01.717Z,102702.19
2023-02-11T17:31:09.974Z,102704.00
2023-02-11T17:34:14.461Z,102717.31
2023-02-11T17:37:17.528Z,102732.41
2023-02-11T17:40:21.764Z,102727.09
2023-02-11T17:43:26.586Z,102724.38
2023-02-11T17:46:29.742Z,102730.53
2023-02-11T17:49:32.850Z,102739.31
2023-02-11T17:52:36.716Z,102733.06
2023-02-11T17:55:40.171Z,102733.94
2023-02-11T17:58:44.671Z,102740.16
2023-02-11T18:01:47.950Z,102742.84
2023-02-11T18:04:52.329Z,102752.59
2023-02-11T18:07:56.729Z,102758.84
2023-02-11T18:10:59.732Z,102775.72
2023-02-11T18:14:07.605Z,102781.94
2023-02-11T18:17:10.532Z,102785.47
2023-02-11T18:20:14.243Z,102797.06
2023-02-11T18:23:17.120Z,102806.81
2023-02-11T18:26:22.255Z,102821.94
2023-02-11T18:29:26.633Z,102826.38
2023-02-11T18:32:29.506Z,102836.13
2023-02-11T18:35:32.385Z,102836.16
2023-02-11T18:38:35.502Z,102844.16
2023-02-11T18:41:40.689Z,102841.47
2023-02-11T18:44:45.186Z,102850.38
2023-02-11T18:47:48.036Z,102853.97
2023-02-11T18:50:50.975Z,102856.66
2023-02-11T18:53:54.647Z,102862.00
2023-02-11T18:56:57.560Z,102863.81
2023-02-11T19:00:01.891Z,102872.66
2023-02-11T19:03:04.988Z,102873.53
2023-02-11T19:06:09.116Z,102885.13
2023-02-11T19:09:15.622Z,102878.88
2023-02-11T19:12:18.905Z,102879.78
2023-02-11T19:15:23.388Z,102892.19
2023-02-11T19:18:26.235Z,102892.19
2023-02-11T19:21:29.514Z,102905.50
2023-02-11T19:24:32.963Z,102893.13
2023-02-11T19:27:35.951Z,102909.97
2023-02-11T19:30:40.258Z,102909.09
2023-02-11T19:33:43.251Z,102900.22
2023-02-11T19:36:46.040Z,102910.00
2023-02-11T19:39:48.877Z,102912.66
2023-02-11T19:42:52.205Z,102907.31
2023-02-11T19:45:57.535Z,102911.78
2023-02-11T19:49:01.462Z,102913.53
2023-02-11T19:52:04.496Z,102917.09
2023-02-11T19:55:08.595Z,102933.09
2023-02-11T19:58:11.514Z,102933.09
2023-02-11T20:01:18.385Z,102928.63
2023-02-11T20:04:21.310Z,102933.06
2023-02-11T20:07:24.083Z,102936.59
2023-02-11T20:10:27.802Z,102938.41
2023-02-11T20:13:30.680Z,102948.19
2023-02-11T20:16:47.379Z,102956.22
2023-02-11T20:19:51.398Z,102959.78
2023-02-11T20:22:54.258Z,102961.56
2023-02-11T20:25:57.190Z,102976.69
2023-02-11T20:29:02.218Z,102970.47
2023-02-11T20:32:06.740Z,102984.69
2023-02-11T20:35:10.897Z,102986.44
2023-02-11T20:38:14.143Z,102984.63
2023-02-11T20:41:19.396Z,102987.31
2023-02-11T20:44:22.789Z,102989.03
2023-02-11T20:47:27.108Z,102995.28
2023-02-11T20:50:29.988Z,102995.28
2023-02-11T20:53:35.608Z,102997.03
2023-02-11T20:56:39.588Z,102997.91
2023-02-11T20:59:42.541Z,103006.78
2023-02-11T21:02:46.772Z,102997.03
2023-02-11T21:05:49.622Z,103010.34
2023-02-11T21:08:52.532Z,103015.69
2023-02-11T21:11:56.225Z,103021.03
2023-02-11T21:14:59.072Z,103023.66
2023-02-11T21:18:03.261Z,103034.31
2023-02-11T21:21:07.119Z,103037.00
2023-02-11T21:24:11.368Z,103036.06
2023-02-11T21:27:14.245Z,103033.41
2023-02-11T21:30:17.460Z,103032.56
2023-02-11T21:33:22.012Z,103037.88
2023-02-11T21:36:25.275Z,103045.00
2023-02-11T21:39:28.256Z,103047.66
2023-02-11T21:42:31.179Z,103053.88
2023-02-11T21:45:34.259Z,103066.34
2023-02-11T21:48:39.578Z,103070.81
2023-02-11T21:51:42.718Z,103075.22
2023-02-11T21:54:46.076Z,103077.03
2023-02-11T21:57:48.930Z,103076.13
2023-02-11T22:00:51.868Z,103082.34
2023-02-11T22:03:56.147Z,103093.91
2023-02-11T22:06:59.079Z,103099.22
2023-02-11T22:10:02.007Z,103108.13
2023-02-11T22:13:04.945Z,103100.13
2023-02-11T22:16:10.481Z,103107.19
2023-02-11T22:19:14.982Z,103114.31
2023-02-11T22:22:19.604Z,103117.84
2023-02-11T22:25:22.472Z,103118.78
2023-02-11T22:28:26.391Z,103126.78
2023-02-11T22:31:32.131Z,103123.19
2023-02-11T22:34:37.000Z,103134.75
2023-02-11T22:37:39.976Z,103134.75
2023-02-11T22:40:43.766Z,103144.50
2023-02-11T22:43:46.879Z,103141.88
2023-02-11T22:46:50.316Z,103139.22
2023-02-11T22:49:54.593Z,103148.09
2023-02-11T22:52:57.794Z,103144.50
2023-02-11T22:56:03.680Z,103149.84
2023-02-11T22:59:09.600Z,103154.28
2023-02-11T23:02:12.556Z,103151.63
2023-02-11T23:05:17.225Z,103159.63
2023-02-11T23:08:20.087Z,103160.50
2023-02-11T23:11:28.636Z,103165.84
2023-02-11T23:14:31.520Z,103165.84
2023-02-11T23:17:34.363Z,103157.84
2023-02-11T23:20:44.298Z,103164.06
2023-02-11T23:23:47.200Z,103169.41
2023-02-11T23:26:50.219Z,103181.84
2023-02-11T23:29:56.180Z,103181.84
2023-02-11T23:32:59.083Z,103183.63
2023-02-11T23:36:03.266Z,103193.38
2023-02-11T23:39:06.523Z,103197.81
2023-02-11T23:42:09.530Z,103192.50
2023-02-11T23:45:12.981Z,103195.16
2023-02-11T23:48:15.811Z,103191.63
2023-02-11T23:51:20.683Z,103198.69
2023-02-11T23:54:23.815Z,103208.44
2023-02-11T23:57:26.756Z,103203.13
